sensor_id;sensor_type;location;lat;lon;timestamp;P1;durP1;ratioP1;P2;durP2;ratioP2
20725;SDS011;10524;48.132;8.518;2023-08-06T00:00:16;5.72;;;3.03;;
20725;SDS011;10524;48.132;8.518;2023-08-06T00:02:41;5.93;;;3.20;;
20725;SDS011;10524;48.132;8.518;2023-08-06T00:05:07;5.55;;;3.15;;
20725;SDS011;10524;48.132;8.518;2023-08-06T00:07:33;7.22;;;3.25;;
20725;SDS011;10524;48.132;8.518;2023-08-06T00:09:58;7.00;;;3.30;;
20725;SDS011;10524;48.132;8.518;2023-08-06T00:12:24;6.68;;;3.40;;
20725;SDS011;10524;48.132;8.518;2023-08-06T00:14:50;8.52;;;3.55;;
20725;SDS011;10524;48.132;8.518;2023-08-06T00:17:16;6.53;;;3.70;;
20725;SDS011;10524;48.132;8.518;2023-08-06T00:19:42;8.13;;;3.40;;
20725;SDS011;10524;48.132;8.518;2023-08-06T00:22:07;5.32;;;3.85;;
20725;SDS011;10524;48.132;8.518;2023-08-06T00:24:34;4.97;;;3.60;;
20725;SDS011;10524;48.132;8.518;2023-08-06T00:27:00;4.88;;;3.40;;
20725;SDS011;10524;48.132;8.518;2023-08-06T00:29:25;5.47;;;3.30;;
20725;SDS011;10524;48.132;8.518;2023-08-06T00:31:51;6.22;;;3.70;;
20725;SDS011;10524;48.132;8.518;2023-08-06T00:34:17;8.15;;;3.28;;
20725;SDS011;10524;48.132;8.518;2023-08-06T00:36:42;7.13;;;4.30;;
20725;SDS011;10524;48.132;8.518;2023-08-06T00:39:08;5.20;;;3.78;;
20725;SDS011;10524;48.132;8.518;2023-08-06T00:41:34;5.90;;;3.85;;
20725;SDS011;10524;48.132;8.518;2023-08-06T00:43:59;7.28;;;3.70;;
20725;SDS011;10524;48.132;8.518;2023-08-06T00:46:26;6.03;;;3.33;;
20725;SDS011;10524;48.132;8.518;2023-08-06T00:48:52;6.47;;;3.58;;
20725;SDS011;10524;48.132;8.518;2023-08-06T00:51:17;5.20;;;3.28;;
20725;SDS011;10524;48.132;8.518;2023-08-06T00:53:45;9.10;;;3.75;;
20725;SDS011;10524;48.132;8.518;2023-08-06T00:56:12;6.45;;;3.72;;
20725;SDS011;10524;48.132;8.518;2023-08-06T00:58:38;6.85;;;3.20;;
20725;SDS011;10524;48.132;8.518;2023-08-06T01:01:04;6.93;;;3.38;;
20725;SDS011;10524;48.132;8.518;2023-08-06T01:03:30;8.25;;;3.22;;
20725;SDS011;10524;48.132;8.518;2023-08-06T01:05:56;5.30;;;3.33;;
20725;SDS011;10524;48.132;8.518;2023-08-06T01:08:30;4.72;;;3.33;;
20725;SDS011;10524;48.132;8.518;2023-08-06T01:11:22;4.88;;;3.05;;
20725;SDS011;10524;48.132;8.518;2023-08-06T01:14:06;5.15;;;3.08;;
20725;SDS011;10524;48.132;8.518;2023-08-06T01:16:42;5.32;;;3.50;;
20725;SDS011;10524;48.132;8.518;2023-08-06T01:19:18;5.82;;;3.28;;
20725;SDS011;10524;48.132;8.518;2023-08-06T01:21:44;4.68;;;3.35;;
20725;SDS011;10524;48.132;8.518;2023-08-06T01:24:10;5.03;;;3.40;;
20725;SDS011;10524;48.132;8.518;2023-08-06T01:26:42;5.30;;;3.08;;
20725;SDS011;10524;48.132;8.518;2023-08-06T01:29:28;5.65;;;2.92;;
20725;SDS011;10524;48.132;8.518;2023-08-06T01:32:10;6.78;;;3.22;;
20725;SDS011;10524;48.132;8.518;2023-08-06T01:34:39;5.13;;;3.35;;
20725;SDS011;10524;48.132;8.518;2023-08-06T01:37:06;4.72;;;2.90;;
20725;SDS011;10524;48.132;8.518;2023-08-06T01:39:33;5.22;;;2.70;;
20725;SDS011;10524;48.132;8.518;2023-08-06T01:41:59;4.95;;;2.83;;
20725;SDS011;10524;48.132;8.518;2023-08-06T01:44:24;5.35;;;3.38;;
20725;SDS011;10524;48.132;8.518;2023-08-06T01:46:50;4.40;;;2.85;;
20725;SDS011;10524;48.132;8.518;2023-08-06T01:49:16;4.93;;;2.67;;
20725;SDS011;10524;48.132;8.518;2023-08-06T01:51:42;4.72;;;3.10;;
20725;SDS011;10524;48.132;8.518;2023-08-06T01:54:07;6.22;;;3.20;;
20725;SDS011;10524;48.132;8.518;2023-08-06T01:56:33;5.45;;;2.47;;
20725;SDS011;10524;48.132;8.518;2023-08-06T01:58:58;4.82;;;2.70;;
20725;SDS011;10524;48.132;8.518;2023-08-06T02:01:24;5.47;;;2.95;;
20725;SDS011;10524;48.132;8.518;2023-08-06T02:03:50;4.80;;;2.75;;
20725;SDS011;10524;48.132;8.518;2023-08-06T02:06:15;7.90;;;2.72;;
20725;SDS011;10524;48.132;8.518;2023-08-06T02:08:42;5.95;;;3.00;;
20725;SDS011;10524;48.132;8.518;2023-08-06T02:11:08;3.85;;;2.60;;
20725;SDS011;10524;48.132;8.518;2023-08-06T02:13:34;3.83;;;2.78;;
20725;SDS011;10524;48.132;8.518;2023-08-06T02:15:59;5.05;;;2.67;;
20725;SDS011;10524;48.132;8.518;2023-08-06T02:18:25;7.57;;;2.70;;
20725;SDS011;10524;48.132;8.518;2023-08-06T02:20:59;4.72;;;2.80;;
20725;SDS011;10524;48.132;8.518;2023-08-06T02:23:26;3.90;;;2.65;;
20725;SDS011;10524;48.132;8.518;2023-08-06T02:25:59;4.55;;;2.55;;
20725;SDS011;10524;48.132;8.518;2023-08-06T02:28:31;4.15;;;2.70;;
20725;SDS011;10524;48.132;8.518;2023-08-06T02:30:57;5.03;;;2.30;;
20725;SDS011;10524;48.132;8.518;2023-08-06T02:33:23;4.95;;;2.55;;
20725;SDS011;10524;48.132;8.518;2023-08-06T02:35:49;4.43;;;2.20;;
20725;SDS011;10524;48.132;8.518;2023-08-06T02:38:15;3.55;;;2.00;;
20725;SDS011;10524;48.132;8.518;2023-08-06T02:40:46;5.68;;;2.58;;
20725;SDS011;10524;48.132;8.518;2023-08-06T02:43:12;5.57;;;2.00;;
20725;SDS011;10524;48.132;8.518;2023-08-06T02:45:38;4.25;;;1.92;;
20725;SDS011;10524;48.132;8.518;2023-08-06T02:48:04;5.53;;;2.00;;
20725;SDS011;10524;48.132;8.518;2023-08-06T02:50:30;5.25;;;1.80;;
20725;SDS011;10524;48.132;8.518;2023-08-06T02:52:56;4.95;;;2.10;;
20725;SDS011;10524;48.132;8.518;2023-08-06T02:55:21;5.50;;;2.08;;
20725;SDS011;10524;48.132;8.518;2023-08-06T02:57:47;4.32;;;1.90;;
20725;SDS011;10524;48.132;8.518;2023-08-06T03:00:13;5.57;;;2.10;;
20725;SDS011;10524;48.132;8.518;2023-08-06T03:02:38;4.78;;;2.33;;
20725;SDS011;10524;48.132;8.518;2023-08-06T03:05:04;6.82;;;2.50;;
20725;SDS011;10524;48.132;8.518;2023-08-06T03:07:31;4.53;;;2.28;;
20725;SDS011;10524;48.132;8.518;2023-08-06T03:09:58;5.70;;;2.40;;
20725;SDS011;10524;48.132;8.518;2023-08-06T03:12:26;4.38;;;2.30;;
20725;SDS011;10524;48.132;8.518;2023-08-06T03:14:52;5.57;;;2.60;;
20725;SDS011;10524;48.132;8.518;2023-08-06T03:17:17;6.38;;;2.63;;
20725;SDS011;10524;48.132;8.518;2023-08-06T03:19:43;4.65;;;2.63;;
20725;SDS011;10524;48.132;8.518;2023-08-06T03:22:09;6.50;;;2.80;;
20725;SDS011;10524;48.132;8.518;2023-08-06T03:24:34;5.70;;;2.30;;
20725;SDS011;10524;48.132;8.518;2023-08-06T03:27:00;5.00;;;2.58;;
20725;SDS011;10524;48.132;8.518;2023-08-06T03:29:25;5.63;;;2.53;;
20725;SDS011;10524;48.132;8.518;2023-08-06T03:31:51;4.32;;;2.50;;
20725;SDS011;10524;48.132;8.518;2023-08-06T03:34:17;5.25;;;1.27;;
20725;SDS011;10524;48.132;8.518;2023-08-06T03:36:43;3.28;;;1.08;;
20725;SDS011;10524;48.132;8.518;2023-08-06T03:39:08;2.35;;;0.82;;
20725;SDS011;10524;48.132;8.518;2023-08-06T03:41:34;2.42;;;0.80;;
20725;SDS011;10524;48.132;8.518;2023-08-06T03:43:59;2.20;;;0.70;;
20725;SDS011;10524;48.132;8.518;2023-08-06T03:46:27;1.38;;;0.52;;
20725;SDS011;10524;48.132;8.518;2023-08-06T03:48:53;1.95;;;0.50;;
20725;SDS011;10524;48.132;8.518;2023-08-06T03:51:19;2.60;;;0.70;;
20725;SDS011;10524;48.132;8.518;2023-08-06T03:53:44;1.73;;;0.70;;
20725;SDS011;10524;48.132;8.518;2023-08-06T03:56:10;2.33;;;0.68;;
20725;SDS011;10524;48.132;8.518;2023-08-06T03:58:36;2.38;;;0.70;;
20725;SDS011;10524;48.132;8.518;2023-08-06T04:01:02;2.58;;;0.63;;
20725;SDS011;10524;48.132;8.518;2023-08-06T04:03:28;1.85;;;0.60;;
20725;SDS011;10524;48.132;8.518;2023-08-06T04:05:54;1.70;;;0.60;;
20725;SDS011;10524;48.132;8.518;2023-08-06T04:08:20;1.00;;;0.50;;
20725;SDS011;10524;48.132;8.518;2023-08-06T04:10:49;2.40;;;0.60;;
20725;SDS011;10524;48.132;8.518;2023-08-06T04:13:15;1.00;;;0.68;;
20725;SDS011;10524;48.132;8.518;2023-08-06T04:15:41;2.17;;;0.60;;
20725;SDS011;10524;48.132;8.518;2023-08-06T04:18:07;0.95;;;0.57;;
20725;SDS011;10524;48.132;8.518;2023-08-06T04:20:32;2.75;;;0.70;;
20725;SDS011;10524;48.132;8.518;2023-08-06T04:22:58;1.52;;;0.60;;
20725;SDS011;10524;48.132;8.518;2023-08-06T04:25:24;0.77;;;0.47;;
20725;SDS011;10524;48.132;8.518;2023-08-06T04:27:50;3.58;;;0.60;;
20725;SDS011;10524;48.132;8.518;2023-08-06T04:30:15;1.42;;;0.60;;
20725;SDS011;10524;48.132;8.518;2023-08-06T04:32:41;2.42;;;0.80;;
20725;SDS011;10524;48.132;8.518;2023-08-06T04:35:07;2.13;;;0.77;;
20725;SDS011;10524;48.132;8.518;2023-08-06T04:37:32;1.15;;;0.70;;
20725;SDS011;10524;48.132;8.518;2023-08-06T04:39:58;0.75;;;0.60;;
20725;SDS011;10524;48.132;8.518;2023-08-06T04:42:24;2.53;;;0.60;;
20725;SDS011;10524;48.132;8.518;2023-08-06T04:44:50;1.65;;;0.60;;
20725;SDS011;10524;48.132;8.518;2023-08-06T04:47:15;1.65;;;0.73;;
20725;SDS011;10524;48.132;8.518;2023-08-06T04:49:41;1.80;;;0.73;;
20725;SDS011;10524;48.132;8.518;2023-08-06T04:52:07;0.90;;;0.60;;
20725;SDS011;10524;48.132;8.518;2023-08-06T04:54:33;1.48;;;0.85;;
20725;SDS011;10524;48.132;8.518;2023-08-06T04:56:59;1.60;;;0.70;;
20725;SDS011;10524;48.132;8.518;2023-08-06T04:59:24;1.60;;;0.60;;
20725;SDS011;10524;48.132;8.518;2023-08-06T05:01:50;1.23;;;0.57;;
20725;SDS011;10524;48.132;8.518;2023-08-06T05:04:15;2.20;;;0.60;;
20725;SDS011;10524;48.132;8.518;2023-08-06T05:06:41;2.85;;;0.80;;
20725;SDS011;10524;48.132;8.518;2023-08-06T05:09:07;1.13;;;0.60;;
20725;SDS011;10524;48.132;8.518;2023-08-06T05:11:32;1.25;;;0.60;;
20725;SDS011;10524;48.132;8.518;2023-08-06T05:13:58;1.73;;;0.60;;
20725;SDS011;10524;48.132;8.518;2023-08-06T05:16:23;0.88;;;0.43;;
20725;SDS011;10524;48.132;8.518;2023-08-06T05:18:49;1.45;;;0.60;;
20725;SDS011;10524;48.132;8.518;2023-08-06T05:21:15;0.70;;;0.40;;
20725;SDS011;10524;48.132;8.518;2023-08-06T05:23:41;1.10;;;0.57;;
20725;SDS011;10524;48.132;8.518;2023-08-06T05:26:07;1.98;;;0.70;;
20725;SDS011;10524;48.132;8.518;2023-08-06T05:28:33;1.45;;;0.60;;
20725;SDS011;10524;48.132;8.518;2023-08-06T05:31:02;1.50;;;0.60;;
20725;SDS011;10524;48.132;8.518;2023-08-06T05:33:30;1.25;;;0.65;;
20725;SDS011;10524;48.132;8.518;2023-08-06T05:35:56;0.60;;;0.50;;
20725;SDS011;10524;48.132;8.518;2023-08-06T05:38:21;0.80;;;0.40;;
20725;SDS011;10524;48.132;8.518;2023-08-06T05:40:47;1.17;;;0.40;;
20725;SDS011;10524;48.132;8.518;2023-08-06T05:43:14;1.30;;;0.40;;
20725;SDS011;10524;48.132;8.518;2023-08-06T05:45:39;0.95;;;0.45;;
20725;SDS011;10524;48.132;8.518;2023-08-06T05:48:10;1.42;;;0.40;;
20725;SDS011;10524;48.132;8.518;2023-08-06T05:50:35;1.50;;;0.50;;
20725;SDS011;10524;48.132;8.518;2023-08-06T05:53:01;2.38;;;0.70;;
20725;SDS011;10524;48.132;8.518;2023-08-06T05:55:27;2.53;;;0.50;;
20725;SDS011;10524;48.132;8.518;2023-08-06T05:57:52;0.30;;;0.30;;
20725;SDS011;10524;48.132;8.518;2023-08-06T06:00:18;0.93;;;0.50;;
20725;SDS011;10524;48.132;8.518;2023-08-06T06:02:44;0.90;;;0.32;;
20725;SDS011;10524;48.132;8.518;2023-08-06T06:05:10;1.42;;;0.40;;
20725;SDS011;10524;48.132;8.518;2023-08-06T06:07:36;0.57;;;0.40;;
20725;SDS011;10524;48.132;8.518;2023-08-06T06:10:02;2.53;;;0.40;;
20725;SDS011;10524;48.132;8.518;2023-08-06T06:12:28;1.63;;;0.57;;
20725;SDS011;10524;48.132;8.518;2023-08-06T06:14:53;1.20;;;0.50;;
20725;SDS011;10524;48.132;8.518;2023-08-06T06:17:19;0.35;;;0.20;;
20725;SDS011;10524;48.132;8.518;2023-08-06T06:19:44;0.55;;;0.20;;
20725;SDS011;10524;48.132;8.518;2023-08-06T06:22:10;0.30;;;0.30;;
20725;SDS011;10524;48.132;8.518;2023-08-06T06:24:36;0.30;;;0.30;;
20725;SDS011;10524;48.132;8.518;2023-08-06T06:27:01;0.20;;;0.20;;
20725;SDS011;10524;48.132;8.518;2023-08-06T06:29:27;0.30;;;0.10;;
20725;SDS011;10524;48.132;8.518;2023-08-06T06:31:53;0.30;;;0.17;;
20725;SDS011;10524;48.132;8.518;2023-08-06T06:34:18;0.10;;;0.10;;
20725;SDS011;10524;48.132;8.518;2023-08-06T06:36:44;0.10;;;0.10;;
20725;SDS011;10524;48.132;8.518;2023-08-06T06:39:09;0.10;;;0.10;;
20725;SDS011;10524;48.132;8.518;2023-08-06T06:41:35;0.30;;;0.20;;
20725;SDS011;10524;48.132;8.518;2023-08-06T06:44:01;0.10;;;0.10;;
20725;SDS011;10524;48.132;8.518;2023-08-06T06:46:26;0.03;;;0.03;;
20725;SDS011;10524;48.132;8.518;2023-08-06T06:48:52;0.10;;;0.10;;
20725;SDS011;10524;48.132;8.518;2023-08-06T06:51:17;0.25;;;0.10;;
20725;SDS011;10524;48.132;8.518;2023-08-06T06:53:43;0.40;;;0.10;;
20725;SDS011;10524;48.132;8.518;2023-08-06T06:56:09;0.22;;;0.10;;
20725;SDS011;10524;48.132;8.518;2023-08-06T06:58:34;0.10;;;0.10;;
20725;SDS011;10524;48.132;8.518;2023-08-06T07:01:00;0.20;;;0.10;;
20725;SDS011;10524;48.132;8.518;2023-08-06T07:03:25;0.65;;;0.13;;
20725;SDS011;10524;48.132;8.518;2023-08-06T07:05:51;0.08;;;0.08;;
20725;SDS011;10524;48.132;8.518;2023-08-06T07:08:21;0.98;;;0.30;;
20725;SDS011;10524;48.132;8.518;2023-08-06T07:10:47;1.48;;;0.30;;
20725;SDS011;10524;48.132;8.518;2023-08-06T07:13:13;1.05;;;0.30;;
20725;SDS011;10524;48.132;8.518;2023-08-06T07:15:38;1.35;;;0.40;;
20725;SDS011;10524;48.132;8.518;2023-08-06T07:18:04;1.50;;;0.20;;
20725;SDS011;10524;48.132;8.518;2023-08-06T07:20:29;0.13;;;0.13;;
20725;SDS011;10524;48.132;8.518;2023-08-06T07:22:58;0.95;;;0.30;;
20725;SDS011;10524;48.132;8.518;2023-08-06T07:25:24;1.25;;;0.25;;
20725;SDS011;10524;48.132;8.518;2023-08-06T07:27:49;0.73;;;0.28;;
20725;SDS011;10524;48.132;8.518;2023-08-06T07:30:15;0.80;;;0.40;;
20725;SDS011;10524;48.132;8.518;2023-08-06T07:32:40;1.38;;;0.47;;
20725;SDS011;10524;48.132;8.518;2023-08-06T07:35:06;0.25;;;0.25;;
20725;SDS011;10524;48.132;8.518;2023-08-06T07:37:34;0.32;;;0.32;;
20725;SDS011;10524;48.132;8.518;2023-08-06T07:40:00;0.50;;;0.30;;
20725;SDS011;10524;48.132;8.518;2023-08-06T07:42:25;1.15;;;0.25;;
20725;SDS011;10524;48.132;8.518;2023-08-06T07:44:52;1.20;;;0.30;;
20725;SDS011;10524;48.132;8.518;2023-08-06T07:47:18;0.20;;;0.20;;
20725;SDS011;10524;48.132;8.518;2023-08-06T07:49:44;0.68;;;0.30;;
20725;SDS011;10524;48.132;8.518;2023-08-06T07:52:10;1.70;;;0.40;;
20725;SDS011;10524;48.132;8.518;2023-08-06T07:54:36;0.30;;;0.30;;
20725;SDS011;10524;48.132;8.518;2023-08-06T07:57:01;0.28;;;0.20;;
20725;SDS011;10524;48.132;8.518;2023-08-06T07:59:27;0.57;;;0.20;;
20725;SDS011;10524;48.132;8.518;2023-08-06T08:01:53;0.30;;;0.30;;
20725;SDS011;10524;48.132;8.518;2023-08-06T08:04:18;0.40;;;0.22;;
20725;SDS011;10524;48.132;8.518;2023-08-06T08:06:44;0.30;;;0.30;;
20725;SDS011;10524;48.132;8.518;2023-08-06T08:09:10;0.63;;;0.30;;
20725;SDS011;10524;48.132;8.518;2023-08-06T08:11:35;1.35;;;0.30;;
20725;SDS011;10524;48.132;8.518;2023-08-06T08:14:01;0.22;;;0.20;;
20725;SDS011;10524;48.132;8.518;2023-08-06T08:16:27;1.17;;;0.20;;
20725;SDS011;10524;48.132;8.518;2023-08-06T08:18:53;0.10;;;0.10;;
20725;SDS011;10524;48.132;8.518;2023-08-06T08:21:18;0.32;;;0.10;;
20725;SDS011;10524;48.132;8.518;2023-08-06T08:23:44;0.10;;;0.10;;
20725;SDS011;10524;48.132;8.518;2023-08-06T08:26:10;0.10;;;0.10;;
20725;SDS011;10524;48.132;8.518;2023-08-06T08:28:35;0.43;;;0.30;;
20725;SDS011;10524;48.132;8.518;2023-08-06T08:31:01;1.65;;;0.22;;
20725;SDS011;10524;48.132;8.518;2023-08-06T08:33:27;0.63;;;0.30;;
20725;SDS011;10524;48.132;8.518;2023-08-06T08:35:52;0.60;;;0.32;;
20725;SDS011;10524;48.132;8.518;2023-08-06T08:38:18;0.20;;;0.20;;
20725;SDS011;10524;48.132;8.518;2023-08-06T08:40:45;2.42;;;0.30;;
20725;SDS011;10524;48.132;8.518;2023-08-06T08:43:14;0.52;;;0.20;;
20725;SDS011;10524;48.132;8.518;2023-08-06T08:45:40;0.20;;;0.10;;
20725;SDS011;10524;48.132;8.518;2023-08-06T08:48:08;0.10;;;0.10;;
20725;SDS011;10524;48.132;8.518;2023-08-06T08:50:37;0.15;;;0.15;;
20725;SDS011;10524;48.132;8.518;2023-08-06T08:53:03;0.50;;;0.10;;
20725;SDS011;10524;48.132;8.518;2023-08-06T08:55:30;0.52;;;0.10;;
20725;SDS011;10524;48.132;8.518;2023-08-06T08:57:56;0.10;;;0.10;;
20725;SDS011;10524;48.132;8.518;2023-08-06T09:00:22;0.43;;;0.20;;
20725;SDS011;10524;48.132;8.518;2023-08-06T09:02:48;0.35;;;0.20;;
20725;SDS011;10524;48.132;8.518;2023-08-06T09:05:15;0.73;;;0.40;;
20725;SDS011;10524;48.132;8.518;2023-08-06T09:07:43;0.30;;;0.30;;
20725;SDS011;10524;48.132;8.518;2023-08-06T09:10:13;0.10;;;0.10;;
20725;SDS011;10524;48.132;8.518;2023-08-06T09:12:42;0.43;;;0.20;;
20725;SDS011;10524;48.132;8.518;2023-08-06T09:15:10;0.10;;;0.10;;
20725;SDS011;10524;48.132;8.518;2023-08-06T09:17:36;0.15;;;0.15;;
20725;SDS011;10524;48.132;8.518;2023-08-06T09:20:14;0.20;;;0.20;;
20725;SDS011;10524;48.132;8.518;2023-08-06T09:22:40;0.30;;;0.30;;
20725;SDS011;10524;48.132;8.518;2023-08-06T09:25:06;0.40;;;0.20;;
20725;SDS011;10524;48.132;8.518;2023-08-06T09:27:36;0.28;;;0.20;;
20725;SDS011;10524;48.132;8.518;2023-08-06T09:30:03;0.20;;;0.20;;
20725;SDS011;10524;48.132;8.518;2023-08-06T09:32:44;0.63;;;0.20;;
20725;SDS011;10524;48.132;8.518;2023-08-06T09:35:19;1.45;;;0.30;;
20725;SDS011;10524;48.132;8.518;2023-08-06T09:37:45;0.57;;;0.30;;
20725;SDS011;10524;48.132;8.518;2023-08-06T09:40:27;0.20;;;0.20;;
20725;SDS011;10524;48.132;8.518;2023-08-06T09:42:54;0.25;;;0.25;;
20725;SDS011;10524;48.132;8.518;2023-08-06T09:45:20;0.60;;;0.40;;
20725;SDS011;10524;48.132;8.518;2023-08-06T09:47:49;0.40;;;0.40;;
20725;SDS011;10524;48.132;8.518;2023-08-06T09:50:16;0.10;;;0.10;;
20725;SDS011;10524;48.132;8.518;2023-08-06T09:52:48;0.30;;;0.10;;
20725;SDS011;10524;48.132;8.518;2023-08-06T09:55:16;0.32;;;0.20;;
20725;SDS011;10524;48.132;8.518;2023-08-06T09:57:43;1.98;;;0.08;;
20725;SDS011;10524;48.132;8.518;2023-08-06T10:00:11;0.10;;;0.10;;
20725;SDS011;10524;48.132;8.518;2023-08-06T10:02:38;0.10;;;0.10;;
20725;SDS011;10524;48.132;8.518;2023-08-06T10:05:04;0.15;;;0.15;;
20725;SDS011;10524;48.132;8.518;2023-08-06T10:07:33;0.20;;;0.20;;
20725;SDS011;10524;48.132;8.518;2023-08-06T10:09:59;0.38;;;0.10;;
20725;SDS011;10524;48.132;8.518;2023-08-06T10:12:25;0.38;;;0.20;;
20725;SDS011;10524;48.132;8.518;2023-08-06T10:14:55;0.55;;;0.20;;
20725;SDS011;10524;48.132;8.518;2023-08-06T10:17:22;0.47;;;0.40;;
20725;SDS011;10524;48.132;8.518;2023-08-06T10:19:49;0.32;;;0.15;;
20725;SDS011;10524;48.132;8.518;2023-08-06T10:22:16;0.85;;;0.20;;
20725;SDS011;10524;48.132;8.518;2023-08-06T10:29:47;0.30;;;0.20;;
20725;SDS011;10524;48.132;8.518;2023-08-06T10:32:13;0.30;;;0.20;;
20725;SDS011;10524;48.132;8.518;2023-08-06T10:34:52;0.17;;;0.17;;
20725;SDS011;10524;48.132;8.518;2023-08-06T10:37:37;0.52;;;0.20;;
20725;SDS011;10524;48.132;8.518;2023-08-06T10:40:03;0.20;;;0.20;;
20725;SDS011;10524;48.132;8.518;2023-08-06T10:42:31;0.20;;;0.20;;
20725;SDS011;10524;48.132;8.518;2023-08-06T10:47:40;0.20;;;0.20;;
20725;SDS011;10524;48.132;8.518;2023-08-06T10:50:10;0.25;;;0.20;;
20725;SDS011;10524;48.132;8.518;2023-08-06T10:52:37;0.35;;;0.15;;
20725;SDS011;10524;48.132;8.518;2023-08-06T10:55:03;0.20;;;0.20;;
20725;SDS011;10524;48.132;8.518;2023-08-06T10:57:29;0.45;;;0.20;;
20725;SDS011;10524;48.132;8.518;2023-08-06T10:59:55;0.10;;;0.10;;
20725;SDS011;10524;48.132;8.518;2023-08-06T11:02:20;0.20;;;0.20;;
20725;SDS011;10524;48.132;8.518;2023-08-06T11:04:46;0.85;;;0.17;;
20725;SDS011;10524;48.132;8.518;2023-08-06T11:07:13;0.17;;;0.10;;
20725;SDS011;10524;48.132;8.518;2023-08-06T11:09:39;0.10;;;0.10;;
20725;SDS011;10524;48.132;8.518;2023-08-06T11:12:10;0.52;;;0.20;;
20725;SDS011;10524;48.132;8.518;2023-08-06T11:14:36;1.55;;;0.20;;
20725;SDS011;10524;48.132;8.518;2023-08-06T11:17:04;0.10;;;0.10;;
20725;SDS011;10524;48.132;8.518;2023-08-06T11:19:31;1.15;;;0.20;;
20725;SDS011;10524;48.132;8.518;2023-08-06T11:21:56;1.48;;;0.20;;
20725;SDS011;10524;48.132;8.518;2023-08-06T11:24:23;0.22;;;0.20;;
20725;SDS011;10524;48.132;8.518;2023-08-06T11:26:49;19.10;;;12.45;;
20725;SDS011;10524;48.132;8.518;2023-08-06T11:29:15;5.05;;;4.25;;
20725;SDS011;10524;48.132;8.518;2023-08-06T11:31:41;1.40;;;0.70;;
20725;SDS011;10524;48.132;8.518;2023-08-06T11:34:06;1.67;;;0.80;;
20725;SDS011;10524;48.132;8.518;2023-08-06T11:36:33;1.77;;;1.67;;
20725;SDS011;10524;48.132;8.518;2023-08-06T11:39:01;0.90;;;0.50;;
20725;SDS011;10524;48.132;8.518;2023-08-06T11:41:31;0.35;;;0.20;;
20725;SDS011;10524;48.132;8.518;2023-08-06T11:44:00;0.60;;;0.47;;
20725;SDS011;10524;48.132;8.518;2023-08-06T11:46:26;0.50;;;0.50;;
20725;SDS011;10524;48.132;8.518;2023-08-06T11:51:24;0.50;;;0.50;;
20725;SDS011;10524;48.132;8.518;2023-08-06T11:53:56;1.40;;;0.50;;
20725;SDS011;10524;48.132;8.518;2023-08-06T11:56:23;0.50;;;0.50;;
20725;SDS011;10524;48.132;8.518;2023-08-06T11:58:50;0.95;;;0.80;;
20725;SDS011;10524;48.132;8.518;2023-08-06T12:01:16;0.70;;;0.70;;
20725;SDS011;10524;48.132;8.518;2023-08-06T12:03:43;0.40;;;0.30;;
20725;SDS011;10524;48.132;8.518;2023-08-06T12:06:08;0.45;;;0.40;;
20725;SDS011;10524;48.132;8.518;2023-08-06T12:08:34;0.30;;;0.30;;
20725;SDS011;10524;48.132;8.518;2023-08-06T12:11:00;0.30;;;0.20;;
20725;SDS011;10524;48.132;8.518;2023-08-06T12:13:26;0.30;;;0.30;;
20725;SDS011;10524;48.132;8.518;2023-08-06T12:15:51;0.35;;;0.20;;
20725;SDS011;10524;48.132;8.518;2023-08-06T12:18:19;0.52;;;0.30;;
20725;SDS011;10524;48.132;8.518;2023-08-06T12:20:44;0.20;;;0.20;;
20725;SDS011;10524;48.132;8.518;2023-08-06T12:23:10;0.57;;;0.20;;
20725;SDS011;10524;48.132;8.518;2023-08-06T12:25:40;0.28;;;0.28;;
20725;SDS011;10524;48.132;8.518;2023-08-06T12:28:06;0.20;;;0.20;;
20725;SDS011;10524;48.132;8.518;2023-08-06T12:30:32;0.20;;;0.20;;
20725;SDS011;10524;48.132;8.518;2023-08-06T12:32:58;0.30;;;0.30;;
20725;SDS011;10524;48.132;8.518;2023-08-06T12:35:24;0.40;;;0.40;;
20725;SDS011;10524;48.132;8.518;2023-08-06T12:37:50;0.32;;;0.30;;
20725;SDS011;10524;48.132;8.518;2023-08-06T12:40:19;19.45;;;14.15;;
20725;SDS011;10524;48.132;8.518;2023-08-06T12:42:45;0.35;;;0.35;;
20725;SDS011;10524;48.132;8.518;2023-08-06T12:45:11;0.13;;;0.13;;
20725;SDS011;10524;48.132;8.518;2023-08-06T12:47:36;0.20;;;0.20;;
20725;SDS011;10524;48.132;8.518;2023-08-06T12:50:02;1.00;;;0.20;;
20725;SDS011;10524;48.132;8.518;2023-08-06T12:52:28;1.48;;;1.38;;
20725;SDS011;10524;48.132;8.518;2023-08-06T12:54:54;0.30;;;0.30;;
20725;SDS011;10524;48.132;8.518;2023-08-06T12:57:20;0.52;;;0.30;;
20725;SDS011;10524;48.132;8.518;2023-08-06T12:59:45;0.65;;;0.20;;
20725;SDS011;10524;48.132;8.518;2023-08-06T13:02:11;3.40;;;2.88;;
20725;SDS011;10524;48.132;8.518;2023-08-06T13:04:37;0.30;;;0.30;;
20725;SDS011;10524;48.132;8.518;2023-08-06T13:07:02;0.52;;;0.30;;
20725;SDS011;10524;48.132;8.518;2023-08-06T13:09:29;0.45;;;0.45;;
20725;SDS011;10524;48.132;8.518;2023-08-06T13:11:55;0.73;;;0.30;;
20725;SDS011;10524;48.132;8.518;2023-08-06T13:14:21;0.95;;;0.30;;
20725;SDS011;10524;48.132;8.518;2023-08-06T13:16:47;0.40;;;0.40;;
20725;SDS011;10524;48.132;8.518;2023-08-06T13:19:12;0.20;;;0.20;;
20725;SDS011;10524;48.132;8.518;2023-08-06T13:24:07;0.30;;;0.30;;
20725;SDS011;10524;48.132;8.518;2023-08-06T13:26:33;0.65;;;0.30;;
20725;SDS011;10524;48.132;8.518;2023-08-06T13:28:59;0.40;;;0.15;;
20725;SDS011;10524;48.132;8.518;2023-08-06T13:31:27;0.20;;;0.20;;
20725;SDS011;10524;48.132;8.518;2023-08-06T13:33:54;0.30;;;0.30;;
20725;SDS011;10524;48.132;8.518;2023-08-06T13:36:20;1.95;;;0.50;;
20725;SDS011;10524;48.132;8.518;2023-08-06T13:38:46;0.30;;;0.30;;
20725;SDS011;10524;48.132;8.518;2023-08-06T13:41:12;0.73;;;0.40;;
20725;SDS011;10524;48.132;8.518;2023-08-06T13:43:38;2.17;;;1.45;;
20725;SDS011;10524;48.132;8.518;2023-08-06T13:46:04;0.40;;;0.40;;
20725;SDS011;10524;48.132;8.518;2023-08-06T13:48:30;2.85;;;1.67;;
20725;SDS011;10524;48.132;8.518;2023-08-06T13:50:55;1.35;;;0.50;;
20725;SDS011;10524;48.132;8.518;2023-08-06T13:53:21;0.90;;;0.60;;
20725;SDS011;10524;48.132;8.518;2023-08-06T13:55:47;1.17;;;0.50;;
20725;SDS011;10524;48.132;8.518;2023-08-06T13:58:12;0.30;;;0.30;;
20725;SDS011;10524;48.132;8.518;2023-08-06T14:00:38;1.33;;;1.23;;
20725;SDS011;10524;48.132;8.518;2023-08-06T14:03:04;1.70;;;0.60;;
20725;SDS011;10524;48.132;8.518;2023-08-06T14:05:29;2.95;;;2.28;;
20725;SDS011;10524;48.132;8.518;2023-08-06T14:07:55;0.90;;;0.60;;
20725;SDS011;10524;48.132;8.518;2023-08-06T14:10:21;1.05;;;0.50;;
20725;SDS011;10524;48.132;8.518;2023-08-06T14:12:47;2.35;;;1.85;;
20725;SDS011;10524;48.132;8.518;2023-08-06T14:15:12;3.20;;;2.75;;
20725;SDS011;10524;48.132;8.518;2023-08-06T14:17:38;1.30;;;1.05;;
20725;SDS011;10524;48.132;8.518;2023-08-06T14:20:05;5.82;;;4.82;;
20725;SDS011;10524;48.132;8.518;2023-08-06T14:22:33;3.97;;;2.85;;
20725;SDS011;10524;48.132;8.518;2023-08-06T14:24:58;3.75;;;2.10;;
20725;SDS011;10524;48.132;8.518;2023-08-06T14:27:24;4.20;;;2.38;;
20725;SDS011;10524;48.132;8.518;2023-08-06T14:29:50;1.83;;;1.40;;
20725;SDS011;10524;48.132;8.518;2023-08-06T14:32:16;1.73;;;0.68;;
20725;SDS011;10524;48.132;8.518;2023-08-06T14:34:43;1.50;;;0.88;;
20725;SDS011;10524;48.132;8.518;2023-08-06T14:37:09;1.15;;;0.55;;
20725;SDS011;10524;48.132;8.518;2023-08-06T14:39:35;0.85;;;0.75;;
20725;SDS011;10524;48.132;8.518;2023-08-06T14:42:00;1.45;;;0.45;;
20725;SDS011;10524;48.132;8.518;2023-08-06T14:44:27;1.38;;;0.80;;
20725;SDS011;10524;48.132;8.518;2023-08-06T14:46:52;0.88;;;0.57;;
20725;SDS011;10524;48.132;8.518;2023-08-06T14:49:18;1.50;;;0.50;;
20725;SDS011;10524;48.132;8.518;2023-08-06T14:51:44;0.80;;;0.55;;
20725;SDS011;10524;48.132;8.518;2023-08-06T14:54:09;0.93;;;0.70;;
20725;SDS011;10524;48.132;8.518;2023-08-06T14:56:35;0.95;;;0.70;;